Tubul — A8VP8 — position and weather

sailwx.info

Track history (hours):
 
Tides and Currents Weather Stations Pressure Air Temp Water Temp Dewpoint Dewpoint Depression Visibility Wind Speed Wind Dir Waves Ship Positions

Tubul

Last reported at 2018-Apr-21 18:34 UTC. Time now 2018-Apr-23 15:25 UTC.
Position N 22°37' E 069°40'.

Length 300 m; draft 11.1 m.

Type: Ship (hazmat cat A). MMSI: 636014647.

Date/timePositionNaut miles runAvg speedWind from/ knotsBaromVisibWave heightAir tempDewpointWater temp
2018-Apr-21 18:34N 22°37' E 069°40'12312.6
2018-Apr-21 08:51N 20°35' E 069°45'820.1
2018-Apr-21 08:26N 20°28' E 069°50'2320.0
2018-Apr-21 07:16N 20°09' E 070°05'620.1
2018-Apr-21 06:58N 20°04' E 070°08'1020.2
2018-Apr-21 06:29N 19°56' E 070°14'1020.0
2018-Apr-21 06:00N 19°47' E 070°19'1020.1
2018-Apr-21 05:30N 19°39' E 070°25'1019.9
2018-Apr-21 05:00N 19°31' E 070°32'1019.9
2018-Apr-21 04:30N 19°23' E 070°38'1019.8
2018-Apr-21 04:00N 19°15' E 070°44'1119.6
2018-Apr-21 03:27N 19°06' E 070°50'919.4
2018-Apr-21 02:59N 18°58' E 070°55'1218.2
2018-Apr-21 02:20N 18°54' E 071°06'1820.2
2018-Apr-21 01:26N 18°53' E 071°26'920.1
2018-Apr-21 01:00N 18°53' E 071°35'1119.9
2018-Apr-21 00:27N 18°53' E 071°47'920.1
2018-Apr-20 23:59N 18°53' E 071°56'1020.1
2018-Apr-20 23:30N 18°53' E 072°07'1020.1
2018-Apr-20 23:00N 18°52' E 072°17'34 1.3
2018-Apr-19 20:37N 18°56' E 072°53'212.5
2018-Apr-19 20:26N 18°54' E 072°51'5 9.1
2018-Apr-19 19:56N 18°51' E 072°48'4 9.9
2018-Apr-19 19:29N 18°50' E 072°43'7 9.2
2018-Apr-19 18:41N 18°50' E 072°35'3417.5
2018-Apr-19 16:44N 18°52' E 071°60'519.2
2018-Apr-19 16:28N 18°52' E 071°54'919.2
2018-Apr-19 16:00N 18°52' E 071°45'919.1
2018-Apr-19 15:30N 18°52' E 071°35'918.4
2018-Apr-19 15:00N 18°53' E 071°25'918.2
2018-Apr-19 14:30N 18°53' E 071°15'918.3
2018-Apr-19 14:00N 18°53' E 071°06'1018.0
2018-Apr-19 13:29N 18°54' E 070°56'919.1
2018-Apr-19 13:00N 18°59' E 070°47'918.8
2018-Apr-19 12:30N 19°03' E 070°38'918.8
2018-Apr-19 12:00N 19°06' E 070°29'2520.3
2018-Apr-19 10:45N 19°18' E 070°05'520.7
2018-Apr-19 10:30N 19°21' E 070°01'  
2018-Apr-14 17:10N 20°03' E 059°12'2319.9
2018-Apr-14 16:00N 19°44' E 058°59'1019.6
2018-Apr-14 15:30N 19°36' E 058°53'1019.7
2018-Apr-14 14:59N 19°28' E 058°46'  
Track history (hours):
 
Tides and Currents Weather Stations Pressure Air Temp Water Temp Dewpoint Dewpoint Depression Visibility Wind Speed Wind Dir Waves Ship Positions

Tubul

Last reported at 2018-Apr-21 18:34 UTC. Time now 2018-Apr-23 15:25 UTC.
Position N 22°37' E 069°40'.

Length 300 m; draft 11.1 m.

Type: Ship (hazmat cat A). MMSI: 636014647.

Date/timePositionNaut miles runAvg speedWind from/ knotsBaromVisibWave heightAir tempDewpointWater temp
2018-Apr-21 18:34N 22°37' E 069°40'12312.6
2018-Apr-21 08:51N 20°35' E 069°45'820.1
2018-Apr-21 08:26N 20°28' E 069°50'2320.0
2018-Apr-21 07:16N 20°09' E 070°05'620.1
2018-Apr-21 06:58N 20°04' E 070°08'1020.2
2018-Apr-21 06:29N 19°56' E 070°14'1020.0
2018-Apr-21 06:00N 19°47' E 070°19'1020.1
2018-Apr-21 05:30N 19°39' E 070°25'1019.9
2018-Apr-21 05:00N 19°31' E 070°32'1019.9
2018-Apr-21 04:30N 19°23' E 070°38'1019.8
2018-Apr-21 04:00N 19°15' E 070°44'1119.6
2018-Apr-21 03:27N 19°06' E 070°50'919.4
2018-Apr-21 02:59N 18°58' E 070°55'1218.2
2018-Apr-21 02:20N 18°54' E 071°06'1820.2
2018-Apr-21 01:26N 18°53' E 071°26'920.1
2018-Apr-21 01:00N 18°53' E 071°35'1119.9
2018-Apr-21 00:27N 18°53' E 071°47'920.1
2018-Apr-20 23:59N 18°53' E 071°56'1020.1
2018-Apr-20 23:30N 18°53' E 072°07'1020.1
2018-Apr-20 23:00N 18°52' E 072°17'34 1.3
2018-Apr-19 20:37N 18°56' E 072°53'212.5
2018-Apr-19 20:26N 18°54' E 072°51'5 9.1
2018-Apr-19 19:56N 18°51' E 072°48'4 9.9
2018-Apr-19 19:29N 18°50' E 072°43'7 9.2
2018-Apr-19 18:41N 18°50' E 072°35'3417.5
2018-Apr-19 16:44N 18°52' E 071°60'519.2
2018-Apr-19 16:28N 18°52' E 071°54'919.2
2018-Apr-19 16:00N 18°52' E 071°45'919.1
2018-Apr-19 15:30N 18°52' E 071°35'918.4
2018-Apr-19 15:00N 18°53' E 071°25'918.2
2018-Apr-19 14:30N 18°53' E 071°15'918.3
2018-Apr-19 14:00N 18°53' E 071°06'1018.0
2018-Apr-19 13:29N 18°54' E 070°56'919.1
2018-Apr-19 13:00N 18°59' E 070°47'918.8
2018-Apr-19 12:30N 19°03' E 070°38'918.8
2018-Apr-19 12:00N 19°06' E 070°29'2520.3
2018-Apr-19 10:45N 19°18' E 070°05'520.7
2018-Apr-19 10:30N 19°21' E 070°01'  
2018-Apr-14 17:10N 20°03' E 059°12'2319.9
2018-Apr-14 16:00N 19°44' E 058°59'1019.6
2018-Apr-14 15:30N 19°36' E 058°53'1019.7
2018-Apr-14 14:59N 19°28' E 058°46'  

Dump ship's entire track history